Time;durP1;ratioP1;P1;durP2;ratioP2;P2;SDS_P1;SDS_P2;PMS_P1;PMS_P2;Temp;Humidity;BMP_temperature;BMP_pressure;BME280_temperature;BME280_humidity;BME280_pressure;Samples;Min_cycle;Max_cycle;Signal;HPM_P1;HPM_P2
2024/01/10 00:01:26;;;;;;;;;63.00;51.00;;;;;-2.48;50.65;100891.41;5035101;28;8887;-84
2024/01/10 00:03:55;;;;;;;;;53.00;48.00;;;;;-2.55;49.85;100893.56;5048752;28;8886;-83
2024/01/10 00:06:25;;;;;;;;;54.50;46.25;;;;;-2.63;49.96;100900.88;5084981;28;8857;-79
2024/01/10 00:08:54;;;;;;;;;58.25;51.00;;;;;-2.71;49.52;100899.59;5070062;28;8875;-80
2024/01/10 00:11:24;;;;;;;;;62.00;53.00;;;;;-2.82;49.78;100893.84;5046296;28;8880;-81
2024/01/10 00:13:59;;;;;;;;;64.50;51.00;;;;;-2.73;49.68;100896.91;5072020;28;8872;-84
2024/01/10 00:16:29;;;;;;;;;65.25;50.25;;;;;-2.82;50.03;100898.97;5064873;28;8982;-87
2024/01/10 00:18:58;;;;;;;;;59.50;49.50;;;;;-2.84;49.93;100898.00;5061539;28;9651;-81
2024/01/10 00:21:27;;;;;;;;;65.50;53.00;;;;;-2.79;49.85;100898.25;5051093;28;8890;-85
2024/01/10 00:23:57;;;;;;;;;57.50;49.00;;;;;-2.77;50.26;100896.66;5068255;28;8892;-82
2024/01/10 00:26:27;;;;;;;;;50.75;46.25;;;;;-2.84;49.67;100900.59;5033225;28;8860;-82
2024/01/10 00:28:56;;;;;;;;;53.25;47.50;;;;;-2.87;50.20;100905.56;5051303;28;9683;-81
2024/01/10 00:31:33;;;;;;;;;52.00;48.00;;;;;-3.12;49.59;100904.19;5051313;28;8926;-81
2024/01/10 00:34:02;;;;;;;;;48.25;45.25;;;;;-3.23;49.55;100899.25;5052274;28;8864;-82
2024/01/10 00:36:31;;;;;;;;;48.25;45.50;;;;;-3.33;49.81;100903.88;5067063;28;8873;-83
2024/01/10 00:39:00;;;;;;;;;39.50;37.25;;;;;-3.33;49.80;100897.84;5067292;28;8968;-81
2024/01/10 00:41:30;;;;;;;;;42.00;41.75;;;;;-3.15;49.87;100901.47;5029170;28;8843;-79
2024/01/10 00:43:59;;;;;;;;;42.00;37.50;;;;;-3.18;49.62;100893.56;5032045;28;8997;-84
2024/01/10 00:46:28;;;;;;;;;44.00;41.00;;;;;-3.30;50.10;100900.56;5033278;28;8856;-81
2024/01/10 00:48:57;;;;;;;;;35.50;34.00;;;;;-3.45;50.33;100904.06;5030738;28;9638;-80
2024/01/10 00:51:26;;;;;;;;;33.75;30.25;;;;;-3.63;50.25;100902.97;5052485;28;8851;-83
2024/01/10 00:53:55;;;;;;;;;42.75;36.00;;;;;-3.61;49.62;100911.66;5033987;28;8857;-82
2024/01/10 00:56:24;;;;;;;;;33.75;29.75;;;;;-3.51;49.74;100911.41;5051278;28;8869;-81
2024/01/10 00:58:57;;;;;;;;;28.50;27.50;;;;;-3.74;49.98;100920.34;5081444;28;10007;-81
2024/01/10 01:01:27;;;;;;;;;28.25;25.50;;;;;-3.68;49.54;100918.16;5009680;28;8841;-84
2024/01/10 01:03:56;;;;;;;;;34.00;31.00;;;;;-3.74;49.80;100924.59;5056446;28;8853;-85
2024/01/10 01:06:25;;;;;;;;;36.00;31.50;;;;;-3.85;49.50;100923.94;5051005;28;9619;-82
2024/01/10 01:08:54;;;;;;;;;31.50;27.25;;;;;-4.20;50.47;100925.28;5033131;28;8968;-84
2024/01/10 01:11:23;;;;;;;;;31.00;30.50;;;;;-4.12;50.34;100923.19;5047139;28;8859;-82
2024/01/10 01:13:52;;;;;;;;;36.25;29.75;;;;;-4.12;50.13;100920.63;4996761;28;9026;-80
2024/01/10 01:16:23;;;;;;;;;34.50;29.50;;;;;-4.05;49.96;100920.22;5046868;28;8855;-84
2024/01/10 01:18:52;;;;;;;;;38.25;33.50;;;;;-4.10;49.88;100914.78;5030170;28;8887;-80
2024/01/10 01:21:21;;;;;;;;;31.50;30.50;;;;;-3.99;50.23;100914.56;5038390;28;8853;-81
2024/01/10 01:23:50;;;;;;;;;30.50;28.25;;;;;-3.87;49.45;100913.56;5015637;28;8865;-80
2024/01/10 01:26:19;;;;;;;;;28.00;26.50;;;;;-3.95;49.39;100921.63;5050022;28;8849;-80
2024/01/10 01:28:48;;;;;;;;;27.00;24.75;;;;;-3.92;49.22;100924.41;5021042;28;8849;-81
2024/01/10 01:31:17;;;;;;;;;28.00;24.50;;;;;-4.07;49.65;100917.53;5076974;28;8857;-78
2024/01/10 01:33:48;;;;;;;;;26.50;26.50;;;;;-4.09;49.43;100919.13;5061220;28;8865;-80
2024/01/10 01:36:17;;;;;;;;;33.25;23.00;;;;;-4.46;49.54;100923.69;5061385;28;8942;-83
2024/01/10 01:38:47;;;;;;;;;28.25;24.50;;;;;-4.39;49.82;100923.28;5049460;28;8853;-81
2024/01/10 01:41:17;;;;;;;;;34.25;24.25;;;;;-4.59;50.41;100919.47;5039174;28;8835;-82
2024/01/10 01:43:47;;;;;;;;;33.00;27.00;;;;;-4.59;49.90;100909.19;5049173;28;8844;-80
2024/01/10 01:46:16;;;;;;;;;27.40;19.60;;;;;-4.53;50.10;100914.72;5052931;28;8848;-80
2024/01/10 01:48:45;;;;;;;;;26.00;21.50;;;;;-4.51;49.98;100917.38;5052227;28;9662;-79
2024/01/10 01:51:19;;;;;;;;;28.50;27.75;;;;;-4.43;49.99;100911.94;5069283;28;8955;-81
2024/01/10 01:53:49;;;;;;;;;23.75;21.25;;;;;-4.51;49.79;100912.25;5051808;28;8862;-81
2024/01/10 01:56:19;;;;;;;;;29.75;28.00;;;;;-4.69;50.14;100912.00;5035057;28;8866;-80
2024/01/10 01:58:51;;;;;;;;;24.25;20.75;;;;;-4.73;50.59;100903.22;5039396;28;8866;-80
2024/01/10 02:01:21;;;;;;;;;26.50;23.00;;;;;-4.65;50.37;100904.56;5070505;28;8839;-81
2024/01/10 02:03:50;;;;;;;;;25.75;21.50;;;;;-4.91;50.39;100907.19;5055538;28;8870;-83
2024/01/10 02:06:21;;;;;;;;;25.40;22.80;;;;;-4.67;50.14;100895.03;5037886;28;8865;-81
2024/01/10 02:08:52;;;;;;;;;27.00;25.00;;;;;-4.86;50.55;100898.13;5054625;28;8862;-82
2024/01/10 02:11:21;;;;;;;;;24.50;20.00;;;;;-4.94;50.52;100895.06;5073684;28;8889;-82
2024/01/10 02:13:51;;;;;;;;;30.25;27.50;;;;;-4.80;50.15;100898.50;5051028;28;8872;-80
2024/01/10 02:16:20;;;;;;;;;31.00;22.75;;;;;-4.77;50.06;100902.91;5051375;28;8853;-81
2024/01/10 02:18:50;;;;;;;;;25.20;25.20;;;;;-4.75;50.49;100897.13;5050367;28;8876;-82
2024/01/10 02:21:23;;;;;;;;;24.75;23.75;;;;;-4.76;50.39;100889.31;5052041;28;8908;-81
2024/01/10 02:23:52;;;;;;;;;21.80;19.20;;;;;-4.75;50.31;100889.41;5040035;28;8853;-79
2024/01/10 02:26:23;;;;;;;;;26.20;21.00;;;;;-4.62;50.14;100894.50;5069059;28;8867;-80
2024/01/10 02:28:52;;;;;;;;;21.00;20.60;;;;;-4.66;49.90;100894.22;5050439;28;8867;-82
2024/01/10 02:31:21;;;;;;;;;24.00;20.80;;;;;-4.58;49.66;100890.47;5033463;28;8839;-80
2024/01/10 02:33:50;;;;;;;;;28.00;21.60;;;;;-4.55;49.91;100895.75;5049154;28;8867;-80
2024/01/10 02:36:19;;;;;;;;;21.80;18.60;;;;;-4.65;49.62;100899.44;5031617;28;8848;-81
2024/01/10 02:38:50;;;;;;;;;23.20;19.20;;;;;-4.55;50.19;100890.63;5032182;28;8861;-80
2024/01/10 02:41:19;;;;;;;;;21.20;19.40;;;;;-4.46;49.81;100890.31;5047575;28;8849;-80
2024/01/10 02:43:49;;;;;;;;;27.20;23.20;;;;;-4.40;49.74;100889.81;5030798;28;8947;-80
2024/01/10 02:46:22;;;;;;;;;28.00;23.40;;;;;-4.62;49.76;100888.50;5056910;28;8861;-80
2024/01/10 02:48:51;;;;;;;;;26.20;24.40;;;;;-4.45;49.42;100897.25;5054337;28;8975;-80
2024/01/10 02:51:21;;;;;;;;;22.00;19.60;;;;;-4.45;49.84;100890.44;5049620;28;8829;-80
2024/01/10 02:53:50;;;;;;;;;25.80;24.60;;;;;-4.38;49.86;100888.22;5031419;28;9011;-80
2024/01/10 02:56:19;;;;;;;;;31.00;23.00;;;;;-4.40;49.75;100888.13;5047678;28;8996;-81
2024/01/10 02:58:49;;;;;;;;;26.60;22.00;;;;;-4.40;49.66;100890.69;5047217;28;8849;-80
2024/01/10 03:01:18;;;;;;;;;25.20;23.60;;;;;-4.38;49.28;100881.41;5047856;28;8892;-81
2024/01/10 03:03:47;;;;;;;;;25.60;25.40;;;;;-4.67;49.74;100888.19;4981683;28;8864;-80
2024/01/10 03:06:16;;;;;;;;;26.50;25.50;;;;;-4.81;50.45;100884.78;5047707;28;8841;-81
2024/01/10 03:08:45;;;;;;;;;23.00;21.50;;;;;-4.52;49.91;100892.53;5057016;28;8853;-81
2024/01/10 03:11:14;;;;;;;;;21.00;18.80;;;;;-4.55;50.53;100894.88;5053905;28;8865;-82
2024/01/10 03:13:45;;;;;;;;;27.33;27.00;;;;;-4.43;49.86;100890.53;5065403;28;8864;-80
2024/01/10 03:16:16;;;;;;;;;25.25;23.75;;;;;-4.46;50.23;100887.75;5090375;28;8896;-81
2024/01/10 03:18:45;;;;;;;;;33.25;29.00;;;;;-4.63;49.55;100886.72;5067335;28;8838;-82
2024/01/10 03:21:15;;;;;;;;;29.00;28.25;;;;;-4.54;49.40;100887.28;5076852;28;8837;-81
2024/01/10 03:23:43;;;;;;;;;32.50;22.00;;;;;-4.55;49.76;100877.81;5005750;28;9548;-81
2024/01/10 03:26:13;;;;;;;;;32.00;26.25;;;;;-4.48;50.02;100879.97;5087888;28;8834;-80
2024/01/10 03:28:42;;;;;;;;;22.75;21.00;;;;;-4.65;50.27;100883.19;5104530;28;8858;-81
2024/01/10 03:31:12;;;;;;;;;27.75;26.25;;;;;-4.63;50.16;100885.03;5059843;28;8888;-81
2024/01/10 03:33:42;;;;;;;;;29.00;27.00;;;;;-4.33;50.14;100886.84;5040766;28;8894;-83
2024/01/10 03:36:14;;;;;;;;;29.00;27.00;;;;;-4.45;49.90;100887.84;5057627;28;8964;-80
2024/01/10 03:38:44;;;;;;;;;27.75;22.75;;;;;-4.42;50.29;100882.91;5057210;28;8863;-83
2024/01/10 03:41:15;;;;;;;;;24.75;22.50;;;;;-4.38;50.06;100889.09;5073860;28;8972;-81
2024/01/10 03:43:44;;;;;;;;;29.00;26.25;;;;;-4.32;50.04;100886.03;5024024;28;8855;-81
2024/01/10 03:46:14;;;;;;;;;21.25;20.50;;;;;-4.30;49.92;100881.88;5056520;28;8846;-82
2024/01/10 03:48:48;;;;;;;;;27.75;25.25;;;;;-4.26;49.94;100886.41;5037564;28;8904;-82
2024/01/10 03:51:18;;;;;;;;;27.50;26.00;;;;;-4.31;50.01;100886.13;5038682;28;8853;-81
2024/01/10 03:53:48;;;;;;;;;29.75;28.00;;;;;-4.45;49.83;100885.28;5038646;28;9700;-83
2024/01/10 03:56:18;;;;;;;;;28.50;24.75;;;;;-4.65;50.93;100888.31;5071645;28;8845;-82
2024/01/10 03:58:48;;;;;;;;;24.00;23.00;;;;;-4.56;50.30;100872.59;5053894;28;8871;-80
2024/01/10 04:01:17;;;;;;;;;28.00;25.00;;;;;-4.88;51.15;100874.06;5030931;28;8839;-80
2024/01/10 04:03:48;;;;;;;;;26.25;23.75;;;;;-4.91;51.05;100873.84;5034266;28;8974;-81
2024/01/10 04:06:17;;;;;;;;;29.50;24.50;;;;;-4.89;51.29;100879.97;5038421;28;8834;-80
2024/01/10 04:08:46;;;;;;;;;32.25;26.75;;;;;-4.99;51.14;100883.63;5053827;28;8865;-80
2024/01/10 04:11:15;;;;;;;;;36.75;24.75;;;;;-5.07;51.31;100887.41;5038080;28;8837;-80
2024/01/10 04:13:44;;;;;;;;;30.50;30.50;;;;;-5.09;51.53;100894.97;5060973;28;9023;-82
2024/01/10 04:16:14;;;;;;;;;39.25;29.75;;;;;-5.25;52.31;100893.09;5055056;28;8883;-81
2024/01/10 04:18:43;;;;;;;;;26.00;26.00;;;;;-5.20;52.00;100896.84;5018691;28;9007;-81
2024/01/10 04:21:13;;;;;;;;;28.75;24.25;;;;;-5.24;52.58;100901.69;5070438;28;8856;-81
2024/01/10 04:23:42;;;;;;;;;44.25;36.75;;;;;-5.13;51.81;100894.66;5037319;28;8861;-81
2024/01/10 04:26:11;;;;;;;;;53.25;47.75;;;;;-5.20;52.49;100899.41;5020452;28;8950;-81
2024/01/10 04:28:41;;;;;;;;;47.50;34.75;;;;;-5.34;52.50;100910.47;5067547;28;8853;-81
2024/01/10 04:31:10;;;;;;;;;39.50;34.50;;;;;-5.34;52.70;100913.03;5065982;28;8873;-82
2024/01/10 04:33:39;;;;;;;;;21.00;19.50;;;;;-5.32;53.07;100916.56;5037996;28;8859;-80
2024/01/10 04:36:08;;;;;;;;;31.00;26.50;;;;;-5.34;52.88;100919.81;5034568;28;8872;-81
2024/01/10 04:38:39;;;;;;;;;30.00;28.25;;;;;-5.30;52.70;100914.09;5051080;28;8855;-80
2024/01/10 04:41:08;;;;;;;;;30.25;27.50;;;;;-5.24;52.35;100927.31;4984715;28;8878;-80
2024/01/10 04:43:37;;;;;;;;;27.50;24.75;;;;;-5.60;53.72;100919.00;5002518;28;8868;-81
2024/01/10 04:46:06;;;;;;;;;34.75;31.75;;;;;-5.38;52.76;100925.53;5067335;28;8869;-79
2024/01/10 04:48:35;;;;;;;;;31.00;27.50;;;;;-5.42;52.90;100930.47;5034054;28;8849;-81
2024/01/10 04:51:05;;;;;;;;;34.50;27.00;;;;;-5.51;53.61;100934.97;5050189;28;8848;-81
2024/01/10 04:53:34;;;;;;;;;27.00;26.75;;;;;-5.46;53.12;100938.72;5050922;28;8971;-81
2024/01/10 04:56:06;;;;;;;;;28.75;27.50;;;;;-5.36;53.28;100937.63;5032416;28;8865;-81
2024/01/10 04:58:36;;;;;;;;;56.75;49.25;;;;;-5.32;53.01;100948.97;4984514;28;8958;-82
2024/01/10 05:01:06;;;;;;;;;39.00;34.00;;;;;-5.38;52.76;100956.28;5048740;28;8854;-81
2024/01/10 05:03:35;;;;;;;;;34.50;30.00;;;;;-5.41;53.18;100951.84;5032092;28;8862;-81
2024/01/10 05:06:05;;;;;;;;;29.75;26.25;;;;;-5.21;52.29;100948.91;5016276;28;8942;-82
2024/01/10 05:08:34;;;;;;;;;39.75;33.75;;;;;-5.37;52.78;100958.06;5045492;28;8954;-81
2024/01/10 05:11:03;;;;;;;;;33.25;32.00;;;;;-5.41;53.56;100951.84;5012599;28;8853;-82
2024/01/10 05:13:34;;;;;;;;;50.50;41.50;;;;;-5.29;53.40;100951.75;5013932;28;9020;-81
2024/01/10 05:16:03;;;;;;;;;47.00;45.00;;;;;-5.23;52.63;100947.94;5048824;28;8865;-81
2024/01/10 05:18:32;;;;;;;;;56.75;46.75;;;;;-5.11;52.46;100954.66;5041333;28;8905;-80
2024/01/10 05:21:01;;;;;;;;;43.25;40.00;;;;;-5.19;52.10;100956.69;5039828;28;8870;-82
2024/01/10 05:23:30;;;;;;;;;32.75;30.25;;;;;-5.23;52.02;100968.44;5032423;28;8850;-80
2024/01/10 05:25:59;;;;;;;;;32.50;25.75;;;;;-5.12;52.35;100960.56;5032253;28;8854;-80
2024/01/10 05:28:28;;;;;;;;;62.25;50.75;;;;;-5.10;52.18;100964.97;4984408;28;8872;-81
2024/01/10 05:30:59;;;;;;;;;66.50;55.00;;;;;-4.98;51.66;100971.69;5036499;28;8845;-80
2024/01/10 05:33:28;;;;;;;;;49.25;45.00;;;;;-5.09;51.61;100971.91;5055207;28;8963;-80
2024/01/10 05:35:59;;;;;;;;;34.00;30.50;;;;;-5.12;51.41;100966.56;5058529;28;8930;-81
2024/01/10 05:38:28;;;;;;;;;34.50;29.75;;;;;-5.11;51.56;100968.34;5051642;28;8853;-80
2024/01/10 05:40:57;;;;;;;;;32.00;30.50;;;;;-5.08;51.04;100963.41;5049970;28;8840;-82
2024/01/10 05:43:26;;;;;;;;;27.50;24.00;;;;;-5.06;51.33;100960.94;5038229;28;8871;-81
2024/01/10 05:45:55;;;;;;;;;33.75;27.75;;;;;-5.07;51.67;100964.31;5049594;28;8954;-82
2024/01/10 05:48:26;;;;;;;;;29.25;26.25;;;;;-5.09;51.24;100971.00;5046368;28;8887;-83
2024/01/10 05:50:55;;;;;;;;;43.75;31.50;;;;;-5.04;51.04;100970.53;5034386;28;8859;-81
2024/01/10 05:53:25;;;;;;;;;34.50;28.50;;;;;-5.04;50.91;100961.91;5051815;28;9749;-84
2024/01/10 05:55:55;;;;;;;;;31.50;30.00;;;;;-5.03;50.42;100981.66;5035922;28;9001;-81
2024/01/10 05:58:25;;;;;;;;;31.00;30.50;;;;;-4.98;51.27;100975.16;5064336;28;9675;-81
2024/01/10 06:00:54;;;;;;;;;31.25;22.25;;;;;-4.91;51.05;100968.75;5043556;28;8855;-80
2024/01/10 06:03:25;;;;;;;;;30.00;28.00;;;;;-4.84;50.33;100973.47;5035549;28;8872;-81
2024/01/10 06:05:54;;;;;;;;;28.50;25.25;;;;;-4.90;50.91;100970.53;5048602;28;9048;-80
2024/01/10 06:08:25;;;;;;;;;34.00;30.50;;;;;-4.84;50.53;100965.78;5031076;28;9050;-81
2024/01/10 06:10:55;;;;;;;;;36.25;33.50;;;;;-4.79;50.02;100972.09;5048066;28;8858;-83
2024/01/10 06:13:24;;;;;;;;;38.00;32.25;;;;;-4.74;50.21;100968.13;5057075;28;8888;-81
2024/01/10 06:15:53;;;;;;;;;37.00;28.50;;;;;-4.79;50.63;100976.31;5082773;28;8861;-81
2024/01/10 06:18:22;;;;;;;;;40.50;33.00;;;;;-4.66;50.07;100974.66;5038138;28;8858;-81
2024/01/10 06:20:53;;;;;;;;;28.75;28.50;;;;;-4.72;49.80;100978.50;5049557;28;8844;-80
2024/01/10 06:23:22;;;;;;;;;32.50;31.00;;;;;-4.78;49.40;100967.84;5051489;28;8855;-82
2024/01/10 06:25:54;;;;;;;;;39.75;30.75;;;;;-4.78;49.03;100971.28;5047274;28;8858;-81
2024/01/10 06:28:23;;;;;;;;;32.67;30.00;;;;;-4.85;49.11;100967.47;5015455;28;8927;-81
2024/01/10 06:30:52;;;;;;;;;33.50;28.50;;;;;-4.82;49.32;100979.59;4976501;28;8894;-83
2024/01/10 06:33:22;;;;;;;;;27.50;20.00;;;;;-4.76;49.21;100979.09;5029352;28;9542;-84
2024/01/10 06:35:54;;;;;;;;;30.25;28.25;;;;;-4.79;49.35;100982.38;5039689;28;8834;-82
2024/01/10 06:38:23;;;;;;;;;29.75;27.75;;;;;-4.76;49.27;100985.09;5031103;28;8965;-79
2024/01/10 06:40:53;;;;;;;;;27.75;26.50;;;;;-4.73;49.23;100987.00;5059065;28;8858;-82
2024/01/10 06:43:22;;;;;;;;;33.25;30.25;;;;;-4.69;49.58;100988.97;5002238;28;8871;-80
2024/01/10 06:45:51;;;;;;;;;30.00;26.50;;;;;-4.63;48.81;100990.22;5051699;28;8867;-79
2024/01/10 06:48:20;;;;;;;;;33.00;31.00;;;;;-4.46;49.11;100992.97;5034071;28;8834;-79
2024/01/10 06:50:50;;;;;;;;;35.00;32.50;;;;;-4.42;48.74;100987.25;5023067;28;8878;-80
2024/01/10 06:53:20;;;;;;;;;38.50;37.50;;;;;-4.37;48.61;100980.72;5067100;28;8855;-79
2024/01/10 06:55:49;;;;;;;;;44.00;34.50;;;;;-4.30;48.19;100990.59;5066873;28;8872;-79
2024/01/10 06:58:18;;;;;;;;;35.75;33.25;;;;;-4.27;48.60;100995.03;5032899;28;8862;-80
2024/01/10 07:00:49;;;;;;;;;34.50;33.00;;;;;-4.19;48.38;100988.66;5032464;28;8859;-79
2024/01/10 07:03:19;;;;;;;;;27.75;25.00;;;;;-4.13;47.94;100993.31;5049297;28;8874;-81
2024/01/10 07:05:48;;;;;;;;;40.25;33.75;;;;;-4.01;48.28;100995.75;5062920;28;8873;-81
2024/01/10 07:08:17;;;;;;;;;38.00;31.50;;;;;-3.96;48.28;100991.78;5047519;28;8850;-80
2024/01/10 07:10:48;;;;;;;;;36.75;35.50;;;;;-3.86;47.57;100989.88;5032723;28;9572;-74
2024/01/10 07:13:17;;;;;;;;;39.25;35.75;;;;;-3.93;46.58;100991.97;5048511;28;8996;-74
2024/01/10 07:15:46;;;;;;;;;45.50;35.75;;;;;-3.84;47.00;100983.13;5048629;28;8854;-75
2024/01/10 07:18:15;;;;;;;;;47.75;40.50;;;;;-4.12;46.73;100985.69;5038699;28;8871;-80
2024/01/10 07:20:45;;;;;;;;;57.00;48.75;;;;;-4.06;47.29;100988.63;5047569;28;8865;-81
2024/01/10 07:23:14;;;;;;;;;58.75;50.25;;;;;-4.39;48.04;100994.28;5047514;28;9757;-78
2024/01/10 07:25:43;;;;;;;;;52.25;44.25;;;;;-4.08;47.58;100992.78;5039839;28;9597;-82
2024/01/10 07:28:14;;;;;;;;;61.00;48.00;;;;;-4.25;47.36;100990.88;5041181;28;8895;-79
2024/01/10 07:30:44;;;;;;;;;50.50;44.75;;;;;-4.01;48.25;101001.78;5047827;28;9073;-80
2024/01/10 07:33:13;;;;;;;;;48.50;45.00;;;;;-3.66;48.05;100992.72;5049796;28;8880;-79
2024/01/10 07:35:43;;;;;;;;;60.75;49.00;;;;;-3.55;47.29;100988.25;5047277;28;8860;-75
2024/01/10 07:38:12;;;;;;;;;49.00;44.25;;;;;-3.39;46.38;100990.03;5064075;28;8857;-75
2024/01/10 07:40:41;;;;;;;;;44.00;41.25;;;;;-3.33;46.65;100996.44;5049236;28;9618;-77
2024/01/10 07:43:11;;;;;;;;;51.75;45.00;;;;;-3.03;46.84;100990.38;4998246;28;8861;-76
2024/01/10 07:45:42;;;;;;;;;41.50;36.50;;;;;-2.92;46.89;100991.88;5059201;28;8894;-80
2024/01/10 07:48:11;;;;;;;;;37.75;36.00;;;;;-2.95;45.34;100991.72;5030215;28;8902;-81
2024/01/10 07:50:41;;;;;;;;;37.25;35.75;;;;;-2.94;44.72;100993.47;5046547;28;8849;-81
2024/01/10 07:53:10;;;;;;;;;44.75;39.25;;;;;-2.80;45.62;100990.03;5029656;28;8869;-78
2024/01/10 07:55:39;;;;;;;;;39.75;37.50;;;;;-2.90;44.41;100993.75;5043038;28;8891;-79
2024/01/10 07:58:08;;;;;;;;;27.25;24.50;;;;;-2.74;44.01;100994.63;5015649;28;8882;-79
2024/01/10 08:00:38;;;;;;;;;29.00;24.25;;;;;-2.67;43.70;100996.75;5046680;28;8854;-77
2024/01/10 08:03:10;;;;;;;;;33.50;31.00;;;;;-2.79;43.84;100999.53;5053070;28;9575;-79
2024/01/10 08:05:39;;;;;;;;;33.75;28.00;;;;;-2.59;43.96;101004.91;5027526;28;9051;-82
2024/01/10 08:08:09;;;;;;;;;37.00;31.25;;;;;-2.40;43.30;100997.38;5026334;28;8862;-78
2024/01/10 08:10:38;;;;;;;;;29.75;27.50;;;;;-2.34;43.51;100992.56;4990230;28;10035;-82
2024/01/10 08:13:07;;;;;;;;;26.80;24.40;;;;;-2.28;42.51;100989.44;4990505;28;8844;-79
2024/01/10 08:15:36;;;;;;;;;28.60;25.40;;;;;-2.26;42.44;100995.53;5014993;28;8842;-82
2024/01/10 08:18:07;;;;;;;;;30.50;30.00;;;;;-2.01;42.65;101002.06;4958413;28;8898;-79
2024/01/10 08:20:38;;;;;;;;;42.00;39.50;;;;;-1.90;42.83;100990.59;4952972;28;8887;-79
2024/01/10 08:23:08;;;;;;;;;44.00;39.00;;;;;-1.82;42.55;100999.63;4964184;28;8872;-78
2024/01/10 08:25:38;;;;;;;;;35.50;34.50;;;;;-1.76;42.00;100999.06;4957792;28;8856;-80
2024/01/10 08:28:08;;;;;;;;;32.50;29.75;;;;;-1.61;41.61;101004.16;4965960;28;8856;-79
2024/01/10 08:30:37;;;;;;;;;33.00;28.00;;;;;-1.75;41.16;100996.59;4979524;28;8872;-79
2024/01/10 08:33:06;;;;;;;;;40.00;33.50;;;;;-1.68;41.32;101005.50;4970755;28;9059;-79
2024/01/10 08:35:36;;;;;;;;;31.00;29.25;;;;;-1.60;40.92;100999.03;4970416;28;8873;-80
2024/01/10 08:38:07;;;;;;;;;20.00;18.75;;;;;-1.58;41.54;101005.19;4970549;28;8865;-81
2024/01/10 08:40:37;;;;;;;;;34.25;29.00;;;;;-1.55;40.89;101000.19;4954695;28;8877;-80
2024/01/10 08:43:07;;;;;;;;;30.60;26.20;;;;;-1.51;41.00;101001.22;4970150;28;8857;-78
2024/01/10 08:45:36;;;;;;;;;37.75;34.75;;;;;-1.46;40.87;101004.06;4985984;28;8979;-80
2024/01/10 08:48:06;;;;;;;;;35.25;24.75;;;;;-1.34;40.47;101002.09;4992396;28;8891;-80
2024/01/10 08:50:39;;;;;;;;;36.25;32.25;;;;;-1.40;40.82;101001.78;4996627;28;8901;-81
2024/01/10 08:53:09;;;;;;;;;35.50;35.50;;;;;-1.33;40.28;101002.16;5009348;28;8876;-77
2024/01/10 08:55:38;;;;;;;;;32.00;28.80;;;;;-1.25;41.05;101001.69;4966676;28;8862;-82
2024/01/10 08:58:08;;;;;;;;;32.00;29.00;;;;;-1.22;39.94;100994.06;4984914;28;8842;-80
2024/01/10 09:00:37;;;;;;;;;17.80;16.60;;;;;-1.32;39.30;100993.59;5022048;28;8885;-79
2024/01/10 09:03:07;;;;;;;;;24.60;20.00;;;;;-1.39;40.18;100993.22;5028160;28;8871;-79
2024/01/10 09:05:36;;;;;;;;;34.00;30.60;;;;;-1.40;39.62;100988.88;4995367;28;8995;-78
2024/01/10 09:08:05;;;;;;;;;25.00;22.60;;;;;-1.49;39.98;100999.59;4992673;28;9570;-78
2024/01/10 09:10:38;;;;;;;;;24.00;24.00;;;;;-1.33;39.95;100996.13;4965767;28;9025;-81
2024/01/10 09:13:07;;;;;;;;;30.60;27.60;;;;;-1.37;38.39;101002.81;4989142;28;8850;-80
2024/01/10 09:15:36;;;;;;;;;28.00;24.00;;;;;-1.21;39.32;101004.47;4926306;28;8847;-81
2024/01/10 09:18:05;;;;;;;;;29.60;26.00;;;;;-1.05;39.60;100989.75;4973745;28;9600;-79
2024/01/10 09:20:35;;;;;;;;;24.20;22.60;;;;;-1.20;38.61;100984.72;4989359;28;8866;-82
2024/01/10 09:23:04;;;;;;;;;13.40;13.00;;;;;-1.26;38.88;100981.84;4989057;28;8881;-79
2024/01/10 09:25:36;;;;;;;;;28.20;25.60;;;;;-1.12;39.02;100989.47;4970292;28;8859;-79
2024/01/10 09:28:05;;;;;;;;;25.00;22.00;;;;;-0.95;39.15;100990.28;4975985;28;9447;-78
2024/01/10 09:30:35;;;;;;;;;17.60;14.20;;;;;-0.90;39.45;100990.50;4979286;28;8909;-79
2024/01/10 09:33:07;;;;;;;;;27.60;26.00;;;;;-0.95;39.26;100986.84;4956450;28;8859;-81
2024/01/10 09:35:36;;;;;;;;;29.40;26.40;;;;;-0.93;39.03;100978.34;4972152;28;9041;-80
2024/01/10 09:38:05;;;;;;;;;24.40;21.00;;;;;-0.95;38.97;100979.09;4972511;28;8976;-77
2024/01/10 09:40:37;;;;;;;;;28.20;26.60;;;;;-0.92;39.34;100985.28;5004656;28;8849;-78
2024/01/10 09:43:07;;;;;;;;;29.00;26.00;;;;;-1.01;39.13;100982.25;5029411;28;8946;-79
2024/01/10 09:45:46;;;;;;;;;33.00;30.20;;;;;-0.86;38.90;100976.06;5016899;28;8888;-80
2024/01/10 09:48:16;;;;;;;;;34.40;28.80;;;;;-0.67;39.14;100977.81;5064464;28;8935;-78
2024/01/10 09:50:49;;;;;;;;;32.75;29.25;;;;;-0.66;39.01;100974.44;5050448;28;8923;-81
2024/01/10 09:53:23;;;;;;;;;40.00;33.00;;;;;-0.53;39.19;100967.34;5051066;28;8857;-80
2024/01/10 09:55:57;;;;;;;;;38.00;33.60;;;;;-0.66;38.82;100970.16;5050380;28;8852;-79
2024/01/10 09:58:26;;;;;;;;;27.25;27.25;;;;;-0.56;39.35;100964.63;5050781;28;9677;-79
2024/01/10 10:00:56;;;;;;;;;47.75;36.25;;;;;-0.53;39.27;100962.16;5032699;28;8857;-80
2024/01/10 10:03:26;;;;;;;;;43.00;37.00;;;;;-0.59;38.68;100963.59;5039706;28;8859;-79
2024/01/10 10:05:55;;;;;;;;;35.50;35.50;;;;;-0.73;39.31;100960.34;5044412;28;8861;-76
2024/01/10 10:08:25;;;;;;;;;40.75;35.50;;;;;-0.85;39.52;100960.63;5032152;28;8914;-78
2024/01/10 10:10:57;;;;;;;;;36.75;36.75;;;;;-0.77;39.56;100956.72;5031511;28;8897;-77
2024/01/10 10:13:27;;;;;;;;;23.75;17.00;;;;;-1.00;40.18;100954.75;5065374;28;9715;-78
2024/01/10 10:16:00;;;;;;;;;44.25;41.50;;;;;-0.95;39.41;100953.28;5048120;28;8833;-78
2024/01/10 10:18:31;;;;;;;;;50.25;44.75;;;;;-0.93;40.97;100949.06;5031941;28;8997;-79
2024/01/10 10:21:11;;;;;;;;;52.00;46.75;;;;;-0.76;40.87;100944.72;5045608;28;8981;-81
2024/01/10 10:23:42;;;;;;;;;52.75;46.25;;;;;-0.86;40.70;100945.97;5009820;28;8907;-80
2024/01/10 10:26:19;;;;;;;;;58.25;49.75;;;;;-1.01;40.81;100943.53;5052517;28;8857;-81
2024/01/10 10:28:51;;;;;;;;;56.50;47.50;;;;;-0.81;41.36;100941.03;5049270;28;8922;-81
2024/01/10 10:31:22;;;;;;;;;50.75;45.00;;;;;-0.89;41.50;100938.09;5049219;28;8865;-79
2024/01/10 10:33:53;;;;;;;;;59.75;50.00;;;;;-0.76;41.86;100934.41;5047868;28;8987;-79
2024/01/10 10:36:22;;;;;;;;;62.50;49.50;;;;;-0.57;41.01;100936.16;5048423;28;8844;-81
2024/01/10 10:38:51;;;;;;;;;49.50;45.00;;;;;-0.67;41.21;100932.25;5014205;28;8954;-80
2024/01/10 10:41:22;;;;;;;;;56.25;46.00;;;;;-0.50;41.45;100938.19;5013535;28;8877;-78
2024/01/10 10:43:55;;;;;;;;;62.50;52.00;;;;;-0.56;40.94;100931.06;5047893;28;8864;-81
2024/01/10 10:46:28;;;;;;;;;51.25;45.00;;;;;-0.57;40.55;100929.28;5049642;28;8900;-80
2024/01/10 10:49:05;;;;;;;;;40.50;31.50;;;;;-0.48;39.61;100913.31;5066215;28;8845;-80
2024/01/10 10:51:36;;;;;;;;;46.00;40.75;;;;;-0.45;39.63;100926.38;5082773;28;8884;-78
2024/01/10 10:54:07;;;;;;;;;41.25;38.00;;;;;-0.43;39.59;100924.72;5049713;28;8853;-79
2024/01/10 10:56:39;;;;;;;;;41.25;40.75;;;;;-0.50;38.65;100920.13;5050202;28;8962;-79
2024/01/10 10:59:10;;;;;;;;;40.00;40.00;;;;;-0.40;38.80;100922.28;5066447;28;8870;-79
2024/01/10 11:01:41;;;;;;;;;42.25;41.25;;;;;-0.39;38.67;100918.00;5016886;28;8980;-81
2024/01/10 11:04:11;;;;;;;;;51.50;46.75;;;;;-0.09;38.99;100920.22;5023168;28;8893;-79
2024/01/10 11:06:42;;;;;;;;;44.25;42.00;;;;;-0.23;37.88;100912.72;4990536;28;8945;-80
2024/01/10 11:09:17;;;;;;;;;36.25;33.00;;;;;-0.29;37.88;100911.56;5023300;28;8851;-80
2024/01/10 11:12:04;;;;;;;;;34.25;32.25;;;;;-0.04;37.65;100908.38;5008104;28;8863;-79
2024/01/10 11:14:48;;;;;;;;;43.75;41.00;;;;;0.18;37.56;100903.34;5003290;28;8868;-79
2024/01/10 11:17:39;;;;;;;;;43.75;39.25;;;;;0.29;36.62;100896.00;4949195;28;8924;-80
2024/01/10 11:20:17;;;;;;;;;43.00;41.50;;;;;0.30;37.52;100897.78;5007482;28;8854;-79
2024/01/10 11:23:23;;;;;;;;;36.75;35.50;;;;;0.43;37.10;100892.31;5026010;28;8891;-80
2024/01/10 11:25:53;;;;;;;;;32.00;29.00;;;;;0.46;36.91;100897.63;5029551;28;8832;-80
2024/01/10 11:28:27;;;;;;;;;41.75;38.25;;;;;0.38;35.95;100886.06;5029080;28;8855;-80
2024/01/10 11:30:56;;;;;;;;;26.20;19.80;;;;;0.44;36.55;100888.94;5049968;28;8892;-79